sensor_id;sensor_type;location;lat;lon;timestamp;P1;durP1;ratioP1;P2;durP2;ratioP2
21168;SDS011;10742;51.816;8.662;2022-10-16T00:01:19;1999.90;;;794.07;;
21168;SDS011;10742;51.816;8.662;2022-10-16T00:04:23;1999.90;;;795.50;;
21168;SDS011;10742;51.816;8.662;2022-10-16T00:07:25;1999.90;;;783.00;;
21168;SDS011;10742;51.816;8.662;2022-10-16T00:10:29;1999.90;;;779.37;;
21168;SDS011;10742;51.816;8.662;2022-10-16T00:13:32;1999.90;;;774.20;;
21168;SDS011;10742;51.816;8.662;2022-10-16T00:16:36;1999.90;;;758.57;;
21168;SDS011;10742;51.816;8.662;2022-10-16T00:19:39;1999.90;;;767.57;;
21168;SDS011;10742;51.816;8.662;2022-10-16T00:22:41;1999.90;;;730.57;;
21168;SDS011;10742;51.816;8.662;2022-10-16T00:25:44;1999.90;;;736.27;;
21168;SDS011;10742;51.816;8.662;2022-10-16T00:28:47;1999.90;;;746.57;;
21168;SDS011;10742;51.816;8.662;2022-10-16T00:31:51;1999.90;;;764.90;;
21168;SDS011;10742;51.816;8.662;2022-10-16T00:34:54;1999.90;;;766.40;;
21168;SDS011;10742;51.816;8.662;2022-10-16T00:37:56;1999.90;;;767.13;;
21168;SDS011;10742;51.816;8.662;2022-10-16T00:40:59;1999.90;;;764.23;;
21168;SDS011;10742;51.816;8.662;2022-10-16T00:44:03;1999.90;;;772.60;;
21168;SDS011;10742;51.816;8.662;2022-10-16T00:47:27;1999.90;;;745.10;;
21168;SDS011;10742;51.816;8.662;2022-10-16T00:50:33;1999.90;;;737.53;;
21168;SDS011;10742;51.816;8.662;2022-10-16T00:53:36;1999.90;;;745.70;;
21168;SDS011;10742;51.816;8.662;2022-10-16T00:56:39;1999.90;;;768.83;;
21168;SDS011;10742;51.816;8.662;2022-10-16T00:59:42;1999.90;;;765.87;;
21168;SDS011;10742;51.816;8.662;2022-10-16T01:02:51;1999.90;;;765.17;;
21168;SDS011;10742;51.816;8.662;2022-10-16T01:13:05;1999.90;;;732.83;;
21168;SDS011;10742;51.816;8.662;2022-10-16T01:16:16;1999.90;;;740.13;;
21168;SDS011;10742;51.816;8.662;2022-10-16T01:19:31;1999.90;;;770.87;;
21168;SDS011;10742;51.816;8.662;2022-10-16T01:33:28;1999.90;;;756.90;;
21168;SDS011;10742;51.816;8.662;2022-10-16T01:36:39;1999.90;;;791.27;;
21168;SDS011;10742;51.816;8.662;2022-10-16T01:39:47;1999.90;;;838.53;;
21168;SDS011;10742;51.816;8.662;2022-10-16T01:42:54;1999.90;;;876.20;;
21168;SDS011;10742;51.816;8.662;2022-10-16T01:46:02;1999.90;;;876.97;;
21168;SDS011;10742;51.816;8.662;2022-10-16T01:49:05;1999.90;;;883.87;;
21168;SDS011;10742;51.816;8.662;2022-10-16T01:52:12;1999.90;;;867.57;;
21168;SDS011;10742;51.816;8.662;2022-10-16T01:55:19;1999.90;;;875.57;;
21168;SDS011;10742;51.816;8.662;2022-10-16T01:58:26;1999.90;;;869.60;;
21168;SDS011;10742;51.816;8.662;2022-10-16T02:01:33;1999.90;;;867.53;;
21168;SDS011;10742;51.816;8.662;2022-10-16T02:08:04;1999.90;;;826.23;;
21168;SDS011;10742;51.816;8.662;2022-10-16T02:11:07;1999.90;;;845.23;;
21168;SDS011;10742;51.816;8.662;2022-10-16T02:14:09;1999.90;;;859.43;;
21168;SDS011;10742;51.816;8.662;2022-10-16T02:17:16;1999.90;;;880.80;;
21168;SDS011;10742;51.816;8.662;2022-10-16T02:20:20;1999.90;;;896.13;;
21168;SDS011;10742;51.816;8.662;2022-10-16T02:27:08;1999.90;;;884.90;;
21168;SDS011;10742;51.816;8.662;2022-10-16T02:33:32;1999.90;;;912.13;;
21168;SDS011;10742;51.816;8.662;2022-10-16T02:36:37;1999.90;;;924.60;;
21168;SDS011;10742;51.816;8.662;2022-10-16T02:39:41;1999.90;;;950.80;;
21168;SDS011;10742;51.816;8.662;2022-10-16T02:42:44;1999.90;;;958.87;;
21168;SDS011;10742;51.816;8.662;2022-10-16T02:45:46;1999.90;;;976.20;;
21168;SDS011;10742;51.816;8.662;2022-10-16T02:48:49;1999.90;;;975.80;;
21168;SDS011;10742;51.816;8.662;2022-10-16T02:51:51;1999.90;;;997.43;;
21168;SDS011;10742;51.816;8.662;2022-10-16T02:54:54;1999.90;;;998.57;;
21168;SDS011;10742;51.816;8.662;2022-10-16T02:57:57;1999.90;;;995.07;;
21168;SDS011;10742;51.816;8.662;2022-10-16T03:01:00;1999.90;;;999.90;;
21168;SDS011;10742;51.816;8.662;2022-10-16T03:04:02;1999.90;;;993.97;;
21168;SDS011;10742;51.816;8.662;2022-10-16T03:07:05;1999.90;;;985.67;;
21168;SDS011;10742;51.816;8.662;2022-10-16T03:10:08;1999.90;;;993.97;;
21168;SDS011;10742;51.816;8.662;2022-10-16T03:13:10;1999.90;;;971.57;;
21168;SDS011;10742;51.816;8.662;2022-10-16T03:16:13;1999.90;;;978.57;;
21168;SDS011;10742;51.816;8.662;2022-10-16T03:19:16;1999.90;;;974.73;;
21168;SDS011;10742;51.816;8.662;2022-10-16T03:22:19;1999.90;;;979.87;;
21168;SDS011;10742;51.816;8.662;2022-10-16T03:25:21;1999.90;;;971.03;;
21168;SDS011;10742;51.816;8.662;2022-10-16T03:28:24;1999.90;;;971.60;;
21168;SDS011;10742;51.816;8.662;2022-10-16T03:31:26;1999.90;;;978.13;;
21168;SDS011;10742;51.816;8.662;2022-10-16T03:34:29;1999.90;;;956.57;;
21168;SDS011;10742;51.816;8.662;2022-10-16T03:37:52;1999.90;;;941.33;;
21168;SDS011;10742;51.816;8.662;2022-10-16T03:41:13;1999.90;;;939.60;;
21168;SDS011;10742;51.816;8.662;2022-10-16T03:44:35;1999.90;;;942.03;;
21168;SDS011;10742;51.816;8.662;2022-10-16T03:47:56;1999.90;;;939.73;;
21168;SDS011;10742;51.816;8.662;2022-10-16T03:51:17;1999.90;;;953.07;;
21168;SDS011;10742;51.816;8.662;2022-10-16T03:54:38;1999.90;;;944.70;;
21168;SDS011;10742;51.816;8.662;2022-10-16T03:58:00;1999.90;;;946.73;;
21168;SDS011;10742;51.816;8.662;2022-10-16T04:01:21;1999.90;;;953.67;;
21168;SDS011;10742;51.816;8.662;2022-10-16T04:04:42;1999.90;;;958.27;;
21168;SDS011;10742;51.816;8.662;2022-10-16T04:08:04;1999.90;;;931.33;;
21168;SDS011;10742;51.816;8.662;2022-10-16T04:11:25;1999.90;;;956.30;;
21168;SDS011;10742;51.816;8.662;2022-10-16T04:14:46;1999.90;;;951.07;;
21168;SDS011;10742;51.816;8.662;2022-10-16T04:17:49;1999.90;;;966.57;;
21168;SDS011;10742;51.816;8.662;2022-10-16T04:20:52;1999.90;;;979.30;;
21168;SDS011;10742;51.816;8.662;2022-10-16T04:23:55;1999.90;;;955.23;;
21168;SDS011;10742;51.816;8.662;2022-10-16T04:26:58;1999.90;;;966.77;;
21168;SDS011;10742;51.816;8.662;2022-10-16T04:30:00;1999.90;;;975.57;;
21168;SDS011;10742;51.816;8.662;2022-10-16T04:33:03;1999.90;;;959.97;;
21168;SDS011;10742;51.816;8.662;2022-10-16T04:36:06;1999.90;;;975.97;;
21168;SDS011;10742;51.816;8.662;2022-10-16T04:39:08;1999.90;;;973.70;;
21168;SDS011;10742;51.816;8.662;2022-10-16T04:42:11;1999.90;;;963.17;;
21168;SDS011;10742;51.816;8.662;2022-10-16T04:45:13;1999.90;;;952.63;;
21168;SDS011;10742;51.816;8.662;2022-10-16T04:48:17;1999.90;;;956.00;;
21168;SDS011;10742;51.816;8.662;2022-10-16T04:51:20;1999.90;;;936.60;;
21168;SDS011;10742;51.816;8.662;2022-10-16T04:54:22;1999.90;;;971.90;;
21168;SDS011;10742;51.816;8.662;2022-10-16T04:57:25;1999.90;;;924.50;;
21168;SDS011;10742;51.816;8.662;2022-10-16T05:00:28;1999.90;;;953.27;;
21168;SDS011;10742;51.816;8.662;2022-10-16T05:03:30;1999.90;;;937.07;;
21168;SDS011;10742;51.816;8.662;2022-10-16T05:06:33;1999.90;;;938.67;;
21168;SDS011;10742;51.816;8.662;2022-10-16T05:09:35;1999.90;;;925.63;;
21168;SDS011;10742;51.816;8.662;2022-10-16T05:12:38;1999.90;;;927.50;;
21168;SDS011;10742;51.816;8.662;2022-10-16T05:15:41;1999.90;;;916.93;;
21168;SDS011;10742;51.816;8.662;2022-10-16T05:18:43;1999.90;;;887.27;;
21168;SDS011;10742;51.816;8.662;2022-10-16T05:21:45;1999.90;;;916.23;;
21168;SDS011;10742;51.816;8.662;2022-10-16T05:24:48;1999.90;;;884.97;;
21168;SDS011;10742;51.816;8.662;2022-10-16T05:27:50;1999.90;;;900.07;;
21168;SDS011;10742;51.816;8.662;2022-10-16T05:30:53;1999.90;;;897.27;;
21168;SDS011;10742;51.816;8.662;2022-10-16T05:33:59;1999.90;;;903.23;;
21168;SDS011;10742;51.816;8.662;2022-10-16T05:37:02;1999.90;;;892.33;;
21168;SDS011;10742;51.816;8.662;2022-10-16T05:40:04;1999.90;;;908.60;;
21168;SDS011;10742;51.816;8.662;2022-10-16T05:43:08;1999.90;;;910.20;;
21168;SDS011;10742;51.816;8.662;2022-10-16T05:46:11;1999.90;;;909.63;;
21168;SDS011;10742;51.816;8.662;2022-10-16T05:49:13;1999.90;;;907.40;;
21168;SDS011;10742;51.816;8.662;2022-10-16T05:52:16;1999.90;;;895.80;;
21168;SDS011;10742;51.816;8.662;2022-10-16T05:55:19;1999.90;;;871.40;;
21168;SDS011;10742;51.816;8.662;2022-10-16T05:58:22;1999.90;;;893.30;;
21168;SDS011;10742;51.816;8.662;2022-10-16T06:01:25;1999.90;;;883.43;;
21168;SDS011;10742;51.816;8.662;2022-10-16T06:04:28;1999.90;;;890.37;;
21168;SDS011;10742;51.816;8.662;2022-10-16T06:07:33;1999.90;;;904.73;;
21168;SDS011;10742;51.816;8.662;2022-10-16T06:10:37;1999.90;;;904.63;;
21168;SDS011;10742;51.816;8.662;2022-10-16T06:13:39;1999.90;;;891.50;;
21168;SDS011;10742;51.816;8.662;2022-10-16T06:16:44;1999.90;;;914.87;;
21168;SDS011;10742;51.816;8.662;2022-10-16T06:19:46;1999.90;;;905.30;;
21168;SDS011;10742;51.816;8.662;2022-10-16T06:22:49;1999.90;;;908.50;;
21168;SDS011;10742;51.816;8.662;2022-10-16T06:25:51;1999.90;;;885.50;;
21168;SDS011;10742;51.816;8.662;2022-10-16T06:28:54;1999.90;;;909.57;;
21168;SDS011;10742;51.816;8.662;2022-10-16T06:31:58;1999.90;;;872.60;;
21168;SDS011;10742;51.816;8.662;2022-10-16T06:35:00;1999.90;;;871.17;;
21168;SDS011;10742;51.816;8.662;2022-10-16T06:38:03;1999.90;;;857.70;;
21168;SDS011;10742;51.816;8.662;2022-10-16T06:41:06;1999.90;;;869.90;;
21168;SDS011;10742;51.816;8.662;2022-10-16T06:44:11;1999.90;;;860.10;;
21168;SDS011;10742;51.816;8.662;2022-10-16T06:47:13;1999.90;;;849.27;;
21168;SDS011;10742;51.816;8.662;2022-10-16T06:50:16;1999.90;;;863.97;;
21168;SDS011;10742;51.816;8.662;2022-10-16T06:53:18;1999.90;;;852.53;;
21168;SDS011;10742;51.816;8.662;2022-10-16T06:56:22;1999.90;;;846.90;;
21168;SDS011;10742;51.816;8.662;2022-10-16T06:59:26;1999.90;;;816.83;;
21168;SDS011;10742;51.816;8.662;2022-10-16T07:02:29;1999.90;;;780.63;;
21168;SDS011;10742;51.816;8.662;2022-10-16T07:05:31;1999.90;;;778.97;;
21168;SDS011;10742;51.816;8.662;2022-10-16T07:08:39;1999.90;;;761.70;;
21168;SDS011;10742;51.816;8.662;2022-10-16T07:11:43;1999.90;;;913.13;;
21168;SDS011;10742;51.816;8.662;2022-10-16T07:14:46;1999.90;;;973.50;;
21168;SDS011;10742;51.816;8.662;2022-10-16T07:17:49;1999.90;;;879.27;;
21168;SDS011;10742;51.816;8.662;2022-10-16T07:20:51;1999.90;;;992.60;;
21168;SDS011;10742;51.816;8.662;2022-10-16T07:23:55;1999.90;;;987.90;;
21168;SDS011;10742;51.816;8.662;2022-10-16T07:26:59;1999.90;;;982.67;;
21168;SDS011;10742;51.816;8.662;2022-10-16T07:30:03;1999.90;;;779.17;;
21168;SDS011;10742;51.816;8.662;2022-10-16T07:33:07;1999.90;;;708.00;;
21168;SDS011;10742;51.816;8.662;2022-10-16T07:36:10;1999.90;;;713.13;;
21168;SDS011;10742;51.816;8.662;2022-10-16T07:39:17;1999.90;;;759.93;;
21168;SDS011;10742;51.816;8.662;2022-10-16T07:42:19;1999.90;;;764.10;;
21168;SDS011;10742;51.816;8.662;2022-10-16T07:45:22;1999.90;;;568.50;;
21168;SDS011;10742;51.816;8.662;2022-10-16T07:48:27;1999.90;;;706.97;;
21168;SDS011;10742;51.816;8.662;2022-10-16T07:51:31;1999.90;;;805.63;;
21168;SDS011;10742;51.816;8.662;2022-10-16T07:54:34;1999.90;;;799.80;;
21168;SDS011;10742;51.816;8.662;2022-10-16T07:57:36;1999.90;;;621.07;;
21168;SDS011;10742;51.816;8.662;2022-10-16T08:00:58;1964.97;;;499.60;;
21168;SDS011;10742;51.816;8.662;2022-10-16T08:04:20;1999.90;;;664.67;;
21168;SDS011;10742;51.816;8.662;2022-10-16T08:07:41;1999.90;;;532.10;;
21168;SDS011;10742;51.816;8.662;2022-10-16T08:11:02;1143.43;;;315.37;;
21168;SDS011;10742;51.816;8.662;2022-10-16T08:14:24;993.97;;;278.30;;
21168;SDS011;10742;51.816;8.662;2022-10-16T08:17:27;815.53;;;215.93;;
21168;SDS011;10742;51.816;8.662;2022-10-16T08:20:30;773.57;;;204.23;;
21168;SDS011;10742;51.816;8.662;2022-10-16T08:23:33;543.10;;;169.23;;
21168;SDS011;10742;51.816;8.662;2022-10-16T08:26:36;538.57;;;160.43;;
21168;SDS011;10742;51.816;8.662;2022-10-16T08:29:39;488.73;;;138.27;;
21168;SDS011;10742;51.816;8.662;2022-10-16T08:32:42;223.07;;;68.28;;
21168;SDS011;10742;51.816;8.662;2022-10-16T08:35:54;452.30;;;132.05;;
21168;SDS011;10742;51.816;8.662;2022-10-16T08:38:57;368.10;;;103.88;;
21168;SDS011;10742;51.816;8.662;2022-10-16T08:45:34;342.27;;;96.95;;
21168;SDS011;10742;51.816;8.662;2022-10-16T08:49:00;176.93;;;53.70;;
21168;SDS011;10742;51.816;8.662;2022-10-16T08:52:08;212.70;;;59.33;;
21168;SDS011;10742;51.816;8.662;2022-10-16T08:55:19;153.45;;;34.47;;
21168;SDS011;10742;51.816;8.662;2022-10-16T08:58:40;156.00;;;44.25;;
21168;SDS011;10742;51.816;8.662;2022-10-16T09:01:44;89.45;;;27.70;;
21168;SDS011;10742;51.816;8.662;2022-10-16T09:08:46;57.45;;;18.08;;
21168;SDS011;10742;51.816;8.662;2022-10-16T09:12:25;33.90;;;10.13;;
21168;SDS011;10742;51.816;8.662;2022-10-16T09:16:03;49.47;;;16.83;;
21168;SDS011;10742;51.816;8.662;2022-10-16T09:19:24;15.57;;;6.75;;
21168;SDS011;10742;51.816;8.662;2022-10-16T09:22:39;4.70;;;3.35;;
21168;SDS011;10742;51.816;8.662;2022-10-16T09:25:46;5.28;;;3.38;;
21168;SDS011;10742;51.816;8.662;2022-10-16T09:28:51;5.35;;;3.03;;
21168;SDS011;10742;51.816;8.662;2022-10-16T09:31:55;3.03;;;2.80;;
21168;SDS011;10742;51.816;8.662;2022-10-16T09:35:13;6.25;;;2.90;;
21168;SDS011;10742;51.816;8.662;2022-10-16T09:38:27;7.60;;;3.15;;
21168;SDS011;10742;51.816;8.662;2022-10-16T09:41:33;6.07;;;2.58;;
21168;SDS011;10742;51.816;8.662;2022-10-16T09:44:38;3.13;;;2.92;;
21168;SDS011;10742;51.816;8.662;2022-10-16T09:47:41;3.22;;;2.92;;
21168;SDS011;10742;51.816;8.662;2022-10-16T09:50:54;5.00;;;2.78;;
21168;SDS011;10742;51.816;8.662;2022-10-16T09:57:11;2.63;;;2.38;;
21168;SDS011;10742;51.816;8.662;2022-10-16T10:00:15;7.57;;;2.83;;
21168;SDS011;10742;51.816;8.662;2022-10-16T10:06:46;6.97;;;3.85;;
21168;SDS011;10742;51.816;8.662;2022-10-16T10:09:56;3.60;;;3.38;;
21168;SDS011;10742;51.816;8.662;2022-10-16T10:12:59;5.65;;;4.80;;
21168;SDS011;10742;51.816;8.662;2022-10-16T10:16:03;6.68;;;4.45;;
21168;SDS011;10742;51.816;8.662;2022-10-16T10:19:08;4.55;;;4.20;;
21168;SDS011;10742;51.816;8.662;2022-10-16T10:25:25;5.63;;;5.05;;
21168;SDS011;10742;51.816;8.662;2022-10-16T10:29:14;4.63;;;4.05;;
21168;SDS011;10742;51.816;8.662;2022-10-16T10:32:25;5.25;;;3.15;;
21168;SDS011;10742;51.816;8.662;2022-10-16T10:39:08;3.15;;;2.70;;
21168;SDS011;10742;51.816;8.662;2022-10-16T10:42:34;3.65;;;3.35;;
21168;SDS011;10742;51.816;8.662;2022-10-16T10:45:46;3.50;;;3.00;;
21168;SDS011;10742;51.816;8.662;2022-10-16T10:48:53;3.35;;;2.92;;
21168;SDS011;10742;51.816;8.662;2022-10-16T10:52:02;3.45;;;2.63;;
21168;SDS011;10742;51.816;8.662;2022-10-16T10:58:58;2.28;;;2.10;;
21168;SDS011;10742;51.816;8.662;2022-10-16T11:02:15;2.88;;;2.60;;
21168;SDS011;10742;51.816;8.662;2022-10-16T11:15:44;3.40;;;2.13;;
21168;SDS011;10742;51.816;8.662;2022-10-16T11:25:39;3.25;;;1.77;;
21168;SDS011;10742;51.816;8.662;2022-10-16T11:28:50;4.90;;;2.08;;
21168;SDS011;10742;51.816;8.662;2022-10-16T11:32:04;2.00;;;1.90;;
21168;SDS011;10742;51.816;8.662;2022-10-16T11:35:19;2.58;;;1.67;;
21168;SDS011;10742;51.816;8.662;2022-10-16T11:38:31;2.03;;;1.92;;
21168;SDS011;10742;51.816;8.662;2022-10-16T11:42:09;3.13;;;1.73;;
21168;SDS011;10742;51.816;8.662;2022-10-16T11:45:29;3.35;;;1.88;;
21168;SDS011;10742;51.816;8.662;2022-10-16T11:49:03;5.35;;;1.70;;
21168;SDS011;10742;51.816;8.662;2022-10-16T11:55:28;2.13;;;1.83;;
21168;SDS011;10742;51.816;8.662;2022-10-16T12:02:02;4.30;;;2.40;;
21168;SDS011;10742;51.816;8.662;2022-10-16T12:05:33;2.17;;;1.63;;
21168;SDS011;10742;51.816;8.662;2022-10-16T12:08:53;2.35;;;1.60;;
21168;SDS011;10742;51.816;8.662;2022-10-16T12:11:55;3.20;;;2.05;;
21168;SDS011;10742;51.816;8.662;2022-10-16T12:15:19;4.55;;;1.95;;
21168;SDS011;10742;51.816;8.662;2022-10-16T12:18:44;3.85;;;2.17;;
21168;SDS011;10742;51.816;8.662;2022-10-16T12:21:48;3.33;;;2.00;;
21168;SDS011;10742;51.816;8.662;2022-10-16T12:24:53;9.50;;;3.55;;
21168;SDS011;10742;51.816;8.662;2022-10-16T12:27:57;5.25;;;3.10;;
21168;SDS011;10742;51.816;8.662;2022-10-16T12:31:06;2.65;;;2.15;;
21168;SDS011;10742;51.816;8.662;2022-10-16T12:34:22;7.80;;;3.28;;
21168;SDS011;10742;51.816;8.662;2022-10-16T12:37:36;6.50;;;2.97;;
21168;SDS011;10742;51.816;8.662;2022-10-16T12:40:40;3.55;;;2.08;;
21168;SDS011;10742;51.816;8.662;2022-10-16T12:43:45;1.95;;;1.83;;
21168;SDS011;10742;51.816;8.662;2022-10-16T12:46:49;3.58;;;2.50;;
21168;SDS011;10742;51.816;8.662;2022-10-16T12:49:53;4.97;;;2.50;;
21168;SDS011;10742;51.816;8.662;2022-10-16T12:52:57;2.83;;;2.20;;
21168;SDS011;10742;51.816;8.662;2022-10-16T12:59:13;2.33;;;1.38;;
21168;SDS011;10742;51.816;8.662;2022-10-16T13:02:32;4.78;;;2.20;;
21168;SDS011;10742;51.816;8.662;2022-10-16T13:12:35;4.45;;;1.38;;
21168;SDS011;10742;51.816;8.662;2022-10-16T13:22:35;2.53;;;1.10;;
21168;SDS011;10742;51.816;8.662;2022-10-16T13:25:48;3.90;;;1.00;;
21168;SDS011;10742;51.816;8.662;2022-10-16T13:29:14;2.75;;;1.30;;
21168;SDS011;10742;51.816;8.662;2022-10-16T13:32:18;1.65;;;1.15;;
21168;SDS011;10742;51.816;8.662;2022-10-16T13:35:23;3.38;;;1.05;;
21168;SDS011;10742;51.816;8.662;2022-10-16T13:38:29;3.38;;;1.38;;
21168;SDS011;10742;51.816;8.662;2022-10-16T13:41:34;1.35;;;0.90;;
21168;SDS011;10742;51.816;8.662;2022-10-16T13:44:42;1.70;;;0.90;;
21168;SDS011;10742;51.816;8.662;2022-10-16T13:47:47;3.75;;;0.98;;
21168;SDS011;10742;51.816;8.662;2022-10-16T13:51:10;3.58;;;1.40;;
21168;SDS011;10742;51.816;8.662;2022-10-16T13:54:13;3.72;;;1.00;;
21168;SDS011;10742;51.816;8.662;2022-10-16T13:57:16;3.92;;;1.58;;
21168;SDS011;10742;51.816;8.662;2022-10-16T14:00:27;19.30;;;5.50;;
21168;SDS011;10742;51.816;8.662;2022-10-16T14:03:32;9.43;;;4.15;;
21168;SDS011;10742;51.816;8.662;2022-10-16T14:06:40;6.38;;;1.92;;
21168;SDS011;10742;51.816;8.662;2022-10-16T14:09:47;4.82;;;1.27;;
21168;SDS011;10742;51.816;8.662;2022-10-16T14:13:04;4.90;;;1.30;;
21168;SDS011;10742;51.816;8.662;2022-10-16T14:16:09;0.77;;;0.77;;
21168;SDS011;10742;51.816;8.662;2022-10-16T14:19:25;2.92;;;1.15;;
21168;SDS011;10742;51.816;8.662;2022-10-16T14:22:42;4.22;;;1.10;;
21168;SDS011;10742;51.816;8.662;2022-10-16T14:25:45;4.30;;;1.23;;
21168;SDS011;10742;51.816;8.662;2022-10-16T14:28:51;3.05;;;1.15;;
21168;SDS011;10742;51.816;8.662;2022-10-16T14:32:21;3.15;;;1.40;;
21168;SDS011;10742;51.816;8.662;2022-10-16T14:35:27;2.42;;;1.10;;
21168;SDS011;10742;51.816;8.662;2022-10-16T14:38:30;5.80;;;1.05;;
21168;SDS011;10742;51.816;8.662;2022-10-16T14:41:40;3.92;;;0.90;;
21168;SDS011;10742;51.816;8.662;2022-10-16T14:44:47;2.13;;;1.00;;
21168;SDS011;10742;51.816;8.662;2022-10-16T14:47:53;3.28;;;1.67;;
21168;SDS011;10742;51.816;8.662;2022-10-16T14:50:58;2.28;;;0.98;;
21168;SDS011;10742;51.816;8.662;2022-10-16T14:54:01;4.80;;;1.90;;
21168;SDS011;10742;51.816;8.662;2022-10-16T14:57:04;4.03;;;2.17;;
21168;SDS011;10742;51.816;8.662;2022-10-16T15:00:18;8.45;;;1.40;;
21168;SDS011;10742;51.816;8.662;2022-10-16T15:03:24;6.85;;;2.70;;
21168;SDS011;10742;51.816;8.662;2022-10-16T15:06:27;2.13;;;1.35;;
21168;SDS011;10742;51.816;8.662;2022-10-16T15:09:30;3.47;;;1.83;;
21168;SDS011;10742;51.816;8.662;2022-10-16T15:12:32;3.72;;;1.60;;
21168;SDS011;10742;51.816;8.662;2022-10-16T15:15:37;1.88;;;1.00;;
21168;SDS011;10742;51.816;8.662;2022-10-16T15:18:42;3.88;;;0.90;;
21168;SDS011;10742;51.816;8.662;2022-10-16T15:21:45;2.15;;;1.05;;
21168;SDS011;10742;51.816;8.662;2022-10-16T15:24:49;3.33;;;0.90;;
21168;SDS011;10742;51.816;8.662;2022-10-16T15:27:52;2.25;;;1.00;;
21168;SDS011;10742;51.816;8.662;2022-10-16T15:30:56;4.28;;;1.35;;
21168;SDS011;10742;51.816;8.662;2022-10-16T15:33:58;10.32;;;1.70;;
21168;SDS011;10742;51.816;8.662;2022-10-16T15:37:06;4.20;;;1.40;;
21168;SDS011;10742;51.816;8.662;2022-10-16T15:40:09;2.70;;;1.10;;
21168;SDS011;10742;51.816;8.662;2022-10-16T15:43:12;4.50;;;1.17;;
21168;SDS011;10742;51.816;8.662;2022-10-16T15:46:17;1.20;;;1.10;;
21168;SDS011;10742;51.816;8.662;2022-10-16T15:49:21;4.00;;;1.35;;
21168;SDS011;10742;51.816;8.662;2022-10-16T15:52:24;3.10;;;1.50;;
21168;SDS011;10742;51.816;8.662;2022-10-16T15:55:26;3.58;;;1.90;;
21168;SDS011;10742;51.816;8.662;2022-10-16T15:58:29;3.88;;;1.75;;
21168;SDS011;10742;51.816;8.662;2022-10-16T16:01:33;4.70;;;1.98;;
21168;SDS011;10742;51.816;8.662;2022-10-16T16:04:36;3.90;;;1.98;;
21168;SDS011;10742;51.816;8.662;2022-10-16T16:07:44;4.93;;;1.73;;
21168;SDS011;10742;51.816;8.662;2022-10-16T16:10:57;3.40;;;1.75;;
21168;SDS011;10742;51.816;8.662;2022-10-16T16:14:03;4.25;;;1.52;;
21168;SDS011;10742;51.816;8.662;2022-10-16T16:17:09;5.65;;;2.28;;
21168;SDS011;10742;51.816;8.662;2022-10-16T16:20:12;5.13;;;2.38;;
21168;SDS011;10742;51.816;8.662;2022-10-16T16:23:14;2.78;;;2.42;;
21168;SDS011;10742;51.816;8.662;2022-10-16T16:26:24;9.18;;;4.70;;
21168;SDS011;10742;51.816;8.662;2022-10-16T16:29:28;4.88;;;3.17;;
21168;SDS011;10742;51.816;8.662;2022-10-16T16:32:31;4.60;;;2.97;;
21168;SDS011;10742;51.816;8.662;2022-10-16T16:35:34;3.70;;;2.85;;
21168;SDS011;10742;51.816;8.662;2022-10-16T16:38:36;9.65;;;3.25;;
21168;SDS011;10742;51.816;8.662;2022-10-16T16:41:39;5.28;;;3.33;;
21168;SDS011;10742;51.816;8.662;2022-10-16T16:44:42;8.70;;;3.55;;
21168;SDS011;10742;51.816;8.662;2022-10-16T16:47:44;6.97;;;3.85;;
21168;SDS011;10742;51.816;8.662;2022-10-16T16:50:47;4.23;;;3.53;;
21168;SDS011;10742;51.816;8.662;2022-10-16T16:53:50;6.10;;;4.30;;
21168;SDS011;10742;51.816;8.662;2022-10-16T16:56:54;12.15;;;4.20;;
21168;SDS011;10742;51.816;8.662;2022-10-16T17:00:01;7.57;;;4.17;;
21168;SDS011;10742;51.816;8.662;2022-10-16T17:03:05;8.27;;;5.33;;
21168;SDS011;10742;51.816;8.662;2022-10-16T17:06:07;6.20;;;4.80;;
21168;SDS011;10742;51.816;8.662;2022-10-16T17:09:11;5.00;;;4.47;;
21168;SDS011;10742;51.816;8.662;2022-10-16T17:12:17;4.53;;;4.13;;
21168;SDS011;10742;51.816;8.662;2022-10-16T17:15:19;7.93;;;4.73;;
21168;SDS011;10742;51.816;8.662;2022-10-16T17:18:22;6.40;;;5.23;;
21168;SDS011;10742;51.816;8.662;2022-10-16T17:21:26;69.00;;;63.75;;
21168;SDS011;10742;51.816;8.662;2022-10-16T17:24:31;9.67;;;8.07;;
21168;SDS011;10742;51.816;8.662;2022-10-16T17:27:34;6.83;;;6.23;;
21168;SDS011;10742;51.816;8.662;2022-10-16T17:30:40;7.90;;;5.97;;
21168;SDS011;10742;51.816;8.662;2022-10-16T17:33:43;15.53;;;7.63;;
21168;SDS011;10742;51.816;8.662;2022-10-16T17:36:46;11.93;;;6.43;;
21168;SDS011;10742;51.816;8.662;2022-10-16T17:39:49;8.20;;;4.83;;
21168;SDS011;10742;51.816;8.662;2022-10-16T17:42:53;5.53;;;4.10;;
21168;SDS011;10742;51.816;8.662;2022-10-16T17:45:55;4.67;;;3.63;;
21168;SDS011;10742;51.816;8.662;2022-10-16T17:48:58;4.83;;;3.00;;
21168;SDS011;10742;51.816;8.662;2022-10-16T17:52:02;4.27;;;2.87;;
21168;SDS011;10742;51.816;8.662;2022-10-16T17:55:04;5.63;;;2.63;;
21168;SDS011;10742;51.816;8.662;2022-10-16T17:58:07;7.30;;;2.77;;
21168;SDS011;10742;51.816;8.662;2022-10-16T18:01:12;6.07;;;2.80;;
21168;SDS011;10742;51.816;8.662;2022-10-16T18:04:16;6.53;;;2.67;;
21168;SDS011;10742;51.816;8.662;2022-10-16T18:07:18;5.97;;;2.60;;
21168;SDS011;10742;51.816;8.662;2022-10-16T18:10:21;3.40;;;2.27;;
21168;SDS011;10742;51.816;8.662;2022-10-16T18:13:23;5.93;;;1.53;;
21168;SDS011;10742;51.816;8.662;2022-10-16T18:16:27;2.40;;;1.93;;
21168;SDS011;10742;51.816;8.662;2022-10-16T18:19:32;2.20;;;1.70;;
21168;SDS011;10742;51.816;8.662;2022-10-16T18:22:34;8.50;;;2.17;;
21168;SDS011;10742;51.816;8.662;2022-10-16T18:25:38;4.43;;;2.33;;
21168;SDS011;10742;51.816;8.662;2022-10-16T18:28:40;7.63;;;2.07;;
21168;SDS011;10742;51.816;8.662;2022-10-16T18:31:43;2.63;;;2.00;;
21168;SDS011;10742;51.816;8.662;2022-10-16T18:34:46;5.20;;;2.30;;
21168;SDS011;10742;51.816;8.662;2022-10-16T18:37:48;8.17;;;3.50;;
21168;SDS011;10742;51.816;8.662;2022-10-16T18:40:51;7.47;;;3.20;;
21168;SDS011;10742;51.816;8.662;2022-10-16T18:43:54;9.17;;;3.00;;
21168;SDS011;10742;51.816;8.662;2022-10-16T18:46:59;9.50;;;3.20;;
21168;SDS011;10742;51.816;8.662;2022-10-16T18:50:03;8.87;;;3.90;;
21168;SDS011;10742;51.816;8.662;2022-10-16T18:53:09;9.10;;;3.67;;
21168;SDS011;10742;51.816;8.662;2022-10-16T18:56:11;10.50;;;3.60;;
21168;SDS011;10742;51.816;8.662;2022-10-16T18:59:15;14.17;;;4.70;;
21168;SDS011;10742;51.816;8.662;2022-10-16T19:02:18;7.13;;;4.00;;
21168;SDS011;10742;51.816;8.662;2022-10-16T19:05:20;7.93;;;4.23;;
21168;SDS011;10742;51.816;8.662;2022-10-16T19:08:23;9.27;;;4.33;;
21168;SDS011;10742;51.816;8.662;2022-10-16T19:11:26;7.63;;;4.87;;
21168;SDS011;10742;51.816;8.662;2022-10-16T19:14:28;6.23;;;5.03;;
21168;SDS011;10742;51.816;8.662;2022-10-16T19:17:33;7.93;;;5.67;;
21168;SDS011;10742;51.816;8.662;2022-10-16T19:20:38;6.40;;;5.57;;
21168;SDS011;10742;51.816;8.662;2022-10-16T19:23:41;8.30;;;6.33;;
21168;SDS011;10742;51.816;8.662;2022-10-16T19:26:43;9.53;;;8.53;;
21168;SDS011;10742;51.816;8.662;2022-10-16T19:29:46;11.43;;;9.17;;
21168;SDS011;10742;51.816;8.662;2022-10-16T19:32:49;12.17;;;10.47;;
21168;SDS011;10742;51.816;8.662;2022-10-16T19:35:53;12.13;;;10.90;;
21168;SDS011;10742;51.816;8.662;2022-10-16T19:39:00;12.90;;;11.70;;